Time;durP1;ratioP1;P1;durP2;ratioP2;P2;SDS_P1;SDS_P2;PMS_P1;PMS_P2;Temp;Humidity;BMP_temperature;BMP_pressure;BME280_temperature;BME280_humidity;BME280_pressure;Samples;Min_cycle;Max_cycle;Signal;HPM_P1;HPM_P2
2022/01/23 00:02:37;;;;;;;24.70;10.30;;;;;;;-0.28;64.35;100029.71;221564;1276;140549;-61
2022/01/23 00:07:41;;;;;;;24.90;10.80;;;;;;;-0.22;64.37;100028.13;221321;1275;139990;-63
2022/01/23 00:12:50;;;;;;;26.50;10.70;;;;;;;-0.22;64.33;100028.14;221439;1276;139840;-62
2022/01/23 00:17:53;;;;;;;26.00;10.10;;;;;;;-0.26;64.36;100024.66;221319;1276;139851;-62
2022/01/23 00:22:59;;;;;;;19.20;8.80;;;;;;;-0.28;64.39;100028.15;221126;1275;139895;-59
2022/01/23 00:33:26;;;;;;;19.60;8.90;;;;;;;-0.33;64.35;100029.89;221176;1276;139644;-60
2022/01/23 00:38:29;;;;;;;19.50;8.70;;;;;;;-0.32;64.39;100021.02;220969;1276;139443;-63
2022/01/23 00:43:35;;;;;;;18.90;8.00;;;;;;;-0.35;64.32;100025.02;221382;1275;141381;-62
2022/01/23 00:48:50;;;;;;;16.70;7.80;;;;;;;-0.40;64.28;100027.30;221251;1276;139798;-63
2022/01/23 00:53:57;;;;;;;19.50;7.90;;;;;;;-0.47;64.29;100029.75;221075;1275;140101;-63
2022/01/23 00:59:00;;;;;;;19.00;7.80;;;;;;;-0.48;64.25;100032.55;221303;1276;140276;-60
2022/01/23 01:04:04;;;;;;;19.30;8.40;;;;;;;-0.46;64.29;100031.50;221225;1276;139778;-62
2022/01/23 01:09:09;;;;;;;20.40;8.60;;;;;;;-0.45;64.31;100021.03;221399;1277;139487;-62
2022/01/23 01:35:24;;;;;;;18.50;7.50;;;;;;;-0.57;64.03;100015.99;221120;1276;140628;-63
2022/01/23 01:40:28;;;;;;;20.70;7.70;;;;;;;-0.66;64.04;100016.52;221248;1276;139594;-62
2022/01/23 01:45:32;;;;;;;20.60;8.10;;;;;;;-0.71;64.18;100017.76;221166;1275;140315;-61
2022/01/23 01:50:47;;;;;;;17.10;6.70;;;;;;;-0.79;64.14;100025.59;221038;1276;139682;-61
2022/01/23 01:55:56;;;;;;;16.00;6.80;;;;;;;-0.80;64.33;100028.73;221325;1277;139971;-60
2022/01/23 02:01:05;;;;;;;16.50;7.10;;;;;;;-0.79;64.36;100023.50;220913;1277;141296;-61
2022/01/23 02:23:10;;;;;;;16.30;7.20;;;;;;;-0.78;64.32;100024.20;221057;1276;139619;-63
2022/01/23 02:54:59;;;;;;;15.10;5.10;;;;;;;-0.69;64.01;100031.52;221315;1276;140816;-62
2022/01/23 03:00:12;;;;;;;14.60;5.90;;;;;;;-0.62;64.13;100038.30;221554;1274;139893;-59
2022/01/23 03:05:36;;;;;;;15.30;5.60;;;;;;;-0.54;64.02;100045.45;221413;1276;140192;-59
2022/01/23 03:10:47;;;;;;;12.50;5.20;;;;;;;-0.50;63.83;100048.58;221440;1276;140096;-60
2022/01/23 03:36:56;;;;;;;11.20;5.50;;;;;;;-0.59;63.62;100057.30;221198;1276;139183;-59
2022/01/23 03:41:59;;;;;;;14.00;5.60;;;;;;;-0.63;63.74;100060.61;221413;1274;140497;-63
2022/01/23 03:47:33;;;;;;;18.30;6.90;;;;;;;-0.65;63.64;100054.33;221303;1276;139578;-62
2022/01/23 03:52:37;;;;;;;14.70;6.10;;;;;;;-0.69;63.85;100049.11;221053;1276;140949;-61
2022/01/23 03:57:40;;;;;;;13.80;6.00;;;;;;;-0.69;63.69;100052.60;221127;1275;140841;-62
2022/01/23 04:02:44;;;;;;;19.00;7.10;;;;;;;-0.71;63.71;100055.91;221232;1276;139289;-62
2022/01/23 04:07:59;;;;;;;19.60;7.20;;;;;;;-0.77;63.79;100054.86;221012;1276;182047;-59
2022/01/23 04:13:25;;;;;;;18.40;7.40;;;;;;;-0.80;63.90;100062.01;221359;1275;138975;-60
2022/01/23 04:34:35;;;;;;;15.50;7.60;;;;;;;-0.90;64.08;100087.08;221511;1277;140452;-61
2022/01/23 04:45:20;;;;;;;23.20;9.30;;;;;;;-1.02;64.22;100091.94;221207;1277;141102;-60
2022/01/23 05:01:15;;;;;;;27.80;11.20;;;;;;;-0.95;64.24;100108.33;221433;1276;140442;-59
2022/01/23 05:06:31;;;;;;;21.50;10.30;;;;;;;-0.95;64.22;100113.38;221294;1275;139688;-59
2022/01/23 05:11:53;;;;;;;27.80;11.50;;;;;;;-0.97;64.26;100108.14;221209;1275;139408;-60
2022/01/23 05:16:59;;;;;;;27.80;11.20;;;;;;;-0.97;64.20;100117.20;221249;1277;141822;-60
2022/01/23 05:27:10;;;;;;;27.00;12.30;;;;;;;-0.98;64.27;100131.13;221429;1276;139218;-59
2022/01/23 05:32:14;;;;;;;26.90;10.80;;;;;;;-1.02;64.32;100127.63;221367;1277;141247;-60
2022/01/23 05:37:17;;;;;;;23.20;11.30;;;;;;;-1.04;64.13;100127.99;221135;1277;139842;-61
2022/01/23 05:42:23;;;;;;;27.40;11.10;;;;;;;-1.04;64.24;100122.75;221065;1277;139896;-63
2022/01/23 05:47:26;;;;;;;29.70;12.10;;;;;;;-1.03;64.34;100122.77;221323;1276;140427;-62
2022/01/23 05:52:34;;;;;;;25.20;10.90;;;;;;;-0.96;64.23;100137.23;221399;1275;140050;-59
2022/01/23 05:58:01;;;;;;;26.50;11.90;;;;;;;-0.89;64.41;100140.39;220787;1275;141192;-59
2022/01/23 06:03:13;;;;;;;24.40;11.10;;;;;;;-0.80;64.27;100142.31;221294;1276;140850;-59
2022/01/23 06:08:21;;;;;;;29.50;11.10;;;;;;;-0.77;64.20;100138.83;221139;1276;139655;-58
2022/01/23 06:13:26;;;;;;;27.90;12.20;;;;;;;-0.78;64.03;100139.36;221068;1277;139714;-59
2022/01/23 06:18:35;;;;;;;30.00;12.00;;;;;;;-0.85;64.00;100140.92;220981;1275;139647;-59
2022/01/23 06:24:21;;;;;;;23.10;11.80;;;;;;;-0.90;64.03;100139.16;220879;1275;139617;-58
2022/01/23 06:29:47;;;;;;;26.40;12.70;;;;;;;-0.93;64.13;100146.64;220971;1276;142283;-61
2022/01/23 06:34:51;;;;;;;30.50;13.00;;;;;;;-0.99;64.04;100152.89;220934;1276;139897;-62
2022/01/23 06:39:54;;;;;;;26.30;11.90;;;;;;;-1.01;64.24;100152.73;221284;1277;140587;-62
2022/01/23 06:45:15;;;;;;;23.60;10.80;;;;;;;-1.02;64.29;100173.11;221257;1276;140435;-62
2022/01/23 06:50:19;;;;;;;21.50;10.50;;;;;;;-1.00;64.20;100175.20;220921;1277;140855;-64
2022/01/23 06:55:23;;;;;;;22.80;10.90;;;;;;;-0.93;64.35;100185.14;221040;1277;141370;-62
2022/01/23 07:00:32;;;;;;;27.70;13.10;;;;;;;-0.83;64.42;100198.23;221309;1276;140286;-62
2022/01/23 07:05:49;;;;;;;28.30;13.80;;;;;;;-0.80;64.29;100208.00;221228;1276;140361;-62
2022/01/23 07:11:14;;;;;;;28.10;13.50;;;;;;;-0.75;64.36;100214.11;221377;1275;139371;-61
2022/01/23 07:16:23;;;;;;;27.20;13.00;;;;;;;-0.73;64.30;100216.02;221448;1276;139789;-61
2022/01/23 07:21:56;;;;;;;30.70;13.90;;;;;;;-0.74;64.16;100223.34;220989;1276;139719;-65
2022/01/23 07:27:07;;;;;;;24.90;12.40;;;;;;;-0.76;64.03;100233.61;221407;1276;139525;-63
2022/01/23 07:32:11;;;;;;;26.60;12.90;;;;;;;-0.77;64.10;100248.77;220904;1277;140273;-64
2022/01/23 07:37:15;;;;;;;27.40;13.20;;;;;;;-0.78;64.32;100259.40;221387;1274;139975;-63
2022/01/23 07:42:51;;;;;;;30.80;13.60;;;;;;;-0.75;64.43;100260.29;220639;1277;139831;-61
2022/01/23 07:48:12;;;;;;;28.90;12.90;;;;;;;-0.70;64.25;100256.98;221357;1276;139596;-61
2022/01/23 07:53:48;;;;;;;31.00;13.30;;;;;;;-0.60;64.16;100269.91;220914;1274;142048;-59
2022/01/23 07:59:24;;;;;;;33.90;14.20;;;;;;;-0.55;64.11;100272.02;220493;1276;140463;-60
2022/01/23 08:04:36;;;;;;;27.80;14.00;;;;;;;-0.53;64.08;100281.09;221023;1276;141366;-56
2022/01/23 08:09:39;;;;;;;72.40;44.60;;;;;;;-0.56;63.93;100285.42;221202;1276;140081;-61
2022/01/23 08:14:44;;;;;;;47.80;21.10;;;;;;;-0.42;64.82;100295.23;221378;1276;139560;-61
2022/01/23 08:19:47;;;;;;;37.40;16.80;;;;;;;-0.27;64.27;100306.26;221416;1276;141091;-63
2022/01/23 08:24:54;;;;;;;31.80;16.40;;;;;;;-0.37;63.87;100309.38;220934;1275;139553;-61
2022/01/23 08:29:58;;;;;;;33.40;17.80;;;;;;;-0.44;63.87;100307.61;221008;1275;139881;-61
2022/01/23 08:35:01;;;;;;;42.50;21.40;;;;;;;-0.52;63.88;100315.61;221093;1276;139831;-60
2022/01/23 08:40:16;;;;;;;40.10;18.70;;;;;;;-0.45;64.73;100322.08;221215;1275;139301;-61
2022/01/23 08:45:20;;;;;;;42.20;19.30;;;;;;;-0.31;64.29;100322.97;220878;1275;140190;-61
2022/01/23 08:50:23;;;;;;;34.20;17.40;;;;;;;-0.27;64.18;100327.36;221298;1275;140307;-62
2022/01/23 08:55:26;;;;;;;37.00;17.90;;;;;;;-0.21;64.17;100338.54;221198;1276;140840;-61
2022/01/23 09:00:29;;;;;;;36.00;18.30;;;;;;;-0.19;64.10;100338.71;221253;1275;140028;-62
2022/01/23 09:05:34;;;;;;;33.10;15.80;;;;;;;-0.20;64.02;100336.60;221067;1274;139534;-60
2022/01/23 09:10:42;;;;;;;39.50;18.00;;;;;;;-0.22;64.07;100344.98;220931;1275;139350;-62
2022/01/23 09:15:46;;;;;;;38.40;19.80;;;;;;;-0.15;64.42;100352.48;221116;1276;140770;-63
2022/01/23 09:20:49;;;;;;;40.00;19.10;;;;;;;-0.03;64.44;100344.69;221294;1274;139565;-63
2022/01/23 09:25:53;;;;;;;35.00;17.80;;;;;;;-0.04;64.01;100337.00;221385;1276;140323;-62
2022/01/23 09:30:56;;;;;;;33.50;17.60;;;;;;;-0.04;64.03;100332.98;221272;1276;142181;-62
2022/01/23 09:35:59;;;;;;;37.10;17.80;;;;;;;-0.03;64.07;100326.20;221205;1275;139519;-62
2022/01/23 09:41:05;;;;;;;33.70;15.70;;;;;;;0.00;64.23;100338.23;221507;1275;139418;-62
2022/01/23 09:46:08;;;;;;;31.20;15.60;;;;;;;0.06;64.24;100343.48;221331;1274;140516;-59
2022/01/23 09:51:13;;;;;;;35.70;16.80;;;;;;;0.21;64.28;100353.42;221309;1275;139946;-62
2022/01/23 09:56:26;;;;;;;35.40;16.80;;;;;;;0.38;64.16;100350.14;221266;1274;139609;-63
2022/01/23 10:01:29;;;;;;;33.40;16.60;;;;;;;0.60;64.75;100341.75;221360;1274;141195;-60
2022/01/23 10:06:33;;;;;;;30.10;14.80;;;;;;;0.86;64.35;100338.94;221346;1276;139865;-61
2022/01/23 10:11:39;;;;;;;30.80;15.50;;;;;;;0.93;63.67;100335.06;221325;1276;140801;-59
2022/01/23 10:16:44;;;;;;;32.00;14.70;;;;;;;0.99;63.50;100329.83;221385;1275;140252;-62
2022/01/23 10:21:48;;;;;;;25.80;12.40;;;;;;;1.02;63.39;100328.23;221366;1274;139850;-61
2022/01/23 10:26:55;;;;;;;20.40;11.30;;;;;;;1.07;63.27;100329.80;221374;1276;139679;-60
2022/01/23 10:32:22;;;;;;;18.10;8.10;;;;;;;1.16;63.18;100335.90;221270;1276;140693;-61
2022/01/23 10:37:35;;;;;;;20.40;7.90;;;;;;;1.18;62.72;100335.54;221320;1274;139905;-61
2022/01/23 10:47:52;;;;;;;20.20;9.70;;;;;;;1.46;63.41;100334.90;221315;1277;141021;-62
2022/01/23 10:52:59;;;;;;;18.60;8.90;;;;;;;1.45;62.56;100331.07;221460;1275;140056;-63
2022/01/23 10:58:06;;;;;;;19.50;8.50;;;;;;;1.41;62.41;100327.23;221444;1275;140160;-62
2022/01/23 11:03:23;;;;;;;33.30;17.50;;;;;;;1.37;62.23;100324.46;221263;1276;138983;-64
2022/01/23 11:08:30;;;;;;;18.20;8.60;;;;;;;1.38;62.49;100310.45;221353;1275;140317;-62
2022/01/23 11:19:08;;;;;;;17.00;8.20;;;;;;;1.47;62.39;100312.70;221097;1276;139914;-61
2022/01/23 11:24:13;;;;;;;21.30;8.90;;;;;;;1.54;62.41;100319.30;221302;1277;140328;-60
2022/01/23 11:29:19;;;;;;;21.70;10.20;;;;;;;1.60;62.20;100325.58;221241;1276;140027;-61
2022/01/23 11:34:26;;;;;;;17.10;9.30;;;;;;;1.71;62.54;100324.66;221354;1274;140262;-63
2022/01/23 11:39:40;;;;;;;18.80;9.60;;;;;;;1.86;62.58;100326.31;221249;1274;139765;-60
2022/01/23 11:55:59;;;;;;;23.50;10.70;;;;;;;2.31;62.28;100338.96;220960;1277;139545;-63
2022/01/23 12:01:24;;;;;;;20.70;10.60;;;;;;;2.35;61.95;100347.00;221294;1276;139721;-59
2022/01/23 12:06:27;;;;;;;26.00;11.60;;;;;;;2.39;61.90;100350.30;221067;1276;139306;-58
2022/01/23 12:11:48;;;;;;;24.70;11.40;;;;;;;2.42;61.77;100344.48;221312;1274;139785;-58
2022/01/23 12:16:54;;;;;;;26.90;11.60;;;;;;;2.48;61.86;100344.95;221075;1274;139128;-58
2022/01/23 12:22:17;;;;;;;75.50;49.60;;;;;;;2.51;61.84;100343.18;221390;1275;139751;-57
2022/01/23 12:27:27;;;;;;;42.30;18.80;;;;;;;2.71;62.59;100343.72;221339;1276;139585;-58
2022/01/23 12:32:30;;;;;;;24.40;11.60;;;;;;;2.83;61.91;100341.32;220770;1274;139998;-60
2022/01/23 12:38:02;;;;;;;26.40;12.10;;;;;;;2.79;61.64;100344.35;221377;1276;139129;-60
2022/01/23 12:43:07;;;;;;;353.60;217.60;;;;;;;2.76;61.34;100351.91;221405;1274;139899;-60
2022/01/23 12:48:25;;;;;;;369.90;179.80;;;;;;;2.77;61.80;100353.30;221555;1275;140223;-59
2022/01/23 12:53:41;;;;;;;40.20;18.50;;;;;;;2.91;61.70;100361.58;221373;1275;141164;-59
2022/01/23 12:58:58;;;;;;;27.60;12.40;;;;;;;2.88;61.29;100357.40;221331;1275;138858;-60
2022/01/23 13:04:05;;;;;;;21.60;10.10;;;;;;;2.82;61.24;100355.02;221498;1274;139841;-57
2022/01/23 13:09:58;;;;;;;21.90;11.10;;;;;;;2.80;61.21;100360.45;221190;1276;139531;-58
2022/01/23 13:15:22;;;;;;;162.00;93.20;;;;;;;2.79;61.07;100358.36;220235;1276;139842;-61
2022/01/23 13:31:46;;;;;;;18.80;8.70;;;;;;;2.81;60.89;100367.27;221242;1276;139337;-58
2022/01/23 13:36:59;;;;;;;18.90;9.40;;;;;;;2.80;60.80;100365.36;221252;1275;140717;-60
2022/01/23 13:48:08;;;;;;;26.80;12.90;;;;;;;2.88;60.97;100372.83;220545;1276;139515;-59
2022/01/23 13:53:26;;;;;;;24.20;11.90;;;;;;;2.76;60.69;100374.15;221029;1275;140211;-60
2022/01/23 13:58:40;;;;;;;25.20;11.60;;;;;;;2.65;60.64;100373.73;221410;1275;141729;-60
2022/01/23 14:03:43;;;;;;;22.60;11.60;;;;;;;2.54;60.59;100377.84;221403;1276;139513;-61
2022/01/23 14:09:10;;;;;;;23.30;11.10;;;;;;;2.46;60.80;100377.02;221252;1274;140784;-58
2022/01/23 14:14:16;;;;;;;23.90;11.80;;;;;;;2.39;60.75;100385.49;221224;1275;139848;-58
2022/01/23 14:19:22;;;;;;;24.60;11.90;;;;;;;2.32;60.87;100383.26;221280;1275;139335;-58
2022/01/23 14:24:36;;;;;;;25.80;12.00;;;;;;;2.32;61.07;100393.42;221336;1275;139877;-58
2022/01/23 14:29:54;;;;;;;28.70;11.30;;;;;;;2.29;61.01;100396.57;221159;1277;139716;-58
2022/01/23 14:35:11;;;;;;;23.40;11.40;;;;;;;2.28;61.12;100401.16;221353;1276;140515;-62
2022/01/23 14:40:14;;;;;;;20.30;10.50;;;;;;;2.28;61.34;100409.39;221318;1275;139660;-60
2022/01/23 14:45:20;;;;;;;19.60;10.50;;;;;;;2.28;61.40;100417.09;221365;1275;141399;-60
2022/01/23 14:50:25;;;;;;;23.10;11.50;;;;;;;2.25;61.33;100420.61;221327;1275;139673;-62
2022/01/23 14:55:28;;;;;;;22.50;11.00;;;;;;;2.21;61.34;100426.23;221392;1276;140423;-62
2022/01/23 15:00:32;;;;;;;22.10;10.40;;;;;;;2.17;61.47;100421.88;221680;1276;139862;-61
2022/01/23 15:05:40;;;;;;;22.90;10.90;;;;;;;2.09;61.26;100432.24;221371;1274;138996;-61
2022/01/23 15:10:44;;;;;;;20.70;11.00;;;;;;;2.03;61.34;100445.41;222036;1275;139067;-63
2022/01/23 15:15:47;;;;;;;22.70;11.90;;;;;;;1.97;61.37;100449.80;221624;1275;139072;-62
2022/01/23 15:20:51;;;;;;;26.10;12.40;;;;;;;1.91;61.39;100452.11;221897;1276;139262;-60
2022/01/23 15:25:55;;;;;;;169.90;105.60;;;;;;;1.89;61.69;100459.81;221849;1275;139478;-61
2022/01/23 15:30:58;;;;;;;38.00;18.90;;;;;;;2.07;62.64;100456.93;221855;1276;140322;-56
2022/01/23 15:36:01;;;;;;;27.80;13.50;;;;;;;2.21;62.28;100457.73;221833;1276;139271;-60
2022/01/23 15:41:04;;;;;;;24.10;12.30;;;;;;;2.15;61.84;100464.08;221964;1275;139618;-59
2022/01/23 15:46:07;;;;;;;24.40;12.40;;;;;;;2.05;61.58;100477.94;221732;1275;139912;-60
2022/01/23 15:51:10;;;;;;;21.70;11.30;;;;;;;1.96;61.72;100488.66;221801;1275;139175;-60
2022/01/23 15:56:13;;;;;;;27.30;13.70;;;;;;;1.91;61.65;100504.61;221878;1275;140187;-61
2022/01/23 16:01:16;;;;;;;22.30;12.30;;;;;;;1.88;61.69;100505.83;221562;1274;139718;-61
2022/01/23 16:06:20;;;;;;;24.30;12.20;;;;;;;1.84;61.76;100509.16;222002;1276;139205;-61
2022/01/23 16:11:26;;;;;;;23.90;12.40;;;;;;;1.80;61.74;100507.26;221540;1275;349425;-61
2022/01/23 16:16:30;;;;;;;27.20;14.80;;;;;;;1.75;61.59;100503.60;221563;1275;139279;-60
2022/01/23 16:21:33;;;;;;;27.50;13.80;;;;;;;1.69;61.71;100499.77;221879;1276;139933;-59
2022/01/23 16:26:36;;;;;;;111.80;63.30;;;;;;;1.63;61.72;100507.13;221982;1276;139754;-61
2022/01/23 16:31:40;;;;;;;29.30;15.00;;;;;;;1.70;62.42;100508.16;221914;1274;139543;-62
2022/01/23 16:36:43;;;;;;;29.80;13.80;;;;;;;1.71;62.05;100508.85;221870;1276;139999;-61
2022/01/23 16:41:46;;;;;;;27.90;13.80;;;;;;;1.71;61.93;100502.04;221607;1275;139968;-60
2022/01/23 16:46:49;;;;;;;29.60;15.30;;;;;;;1.73;61.93;100500.98;221757;1274;141084;-60
2022/01/23 16:52:12;;;;;;;28.60;15.10;;;;;;;1.77;61.90;100511.98;221910;1276;139760;-61
2022/01/23 16:57:18;;;;;;;45.10;22.70;;;;;;;1.78;62.04;100517.94;221966;1275;140703;-59
2022/01/23 17:02:21;;;;;;;34.70;17.50;;;;;;;1.81;62.11;100517.23;221884;1275;139558;-61
2022/01/23 17:07:24;;;;;;;32.30;16.60;;;;;;;1.77;61.86;100521.45;221744;1276;139713;-61
2022/01/23 17:12:27;;;;;;;35.40;17.40;;;;;;;1.74;61.82;100521.79;221505;1275;140882;-60
2022/01/23 17:17:30;;;;;;;34.40;16.40;;;;;;;1.73;61.94;100521.80;221841;1276;139583;-61
2022/01/23 17:22:33;;;;;;;33.10;16.50;;;;;;;1.75;61.99;100529.14;222024;1275;139068;-61
2022/01/23 17:27:36;;;;;;;59.40;30.70;;;;;;;1.83;62.26;100538.23;222009;1276;139523;-60
2022/01/23 17:32:40;;;;;;;29.90;15.40;;;;;;;1.95;62.76;100533.64;221871;1275;140043;-60
2022/01/23 17:37:50;;;;;;;29.00;14.60;;;;;;;1.96;62.37;100538.54;221850;1276;139733;-61
2022/01/23 17:42:53;;;;;;;30.40;14.10;;;;;;;1.93;62.16;100550.44;221848;1276;139548;-61
2022/01/23 17:48:07;;;;;;;27.40;14.30;;;;;;;1.90;62.14;100559.73;221997;1276;140041;-61
2022/01/23 17:53:10;;;;;;;92.40;52.70;;;;;;;1.90;62.28;100566.02;221918;1275;140079;-61
2022/01/23 17:58:16;;;;;;;51.70;26.90;;;;;;;2.09;63.29;100570.01;221461;1276;141162;-60
2022/01/23 18:03:19;;;;;;;37.40;19.50;;;;;;;2.20;62.58;100570.85;221800;1275;139601;-61
2022/01/23 18:08:22;;;;;;;30.80;14.00;;;;;;;2.11;61.94;100578.92;221728;1275;139131;-61
2022/01/23 18:13:25;;;;;;;23.50;10.70;;;;;;;2.04;61.73;100584.02;221711;1276;139269;-61
2022/01/23 18:18:28;;;;;;;15.50;8.10;;;;;;;1.95;61.38;100591.05;221734;1275;139039;-59
2022/01/23 18:23:31;;;;;;;12.50;7.00;;;;;;;1.92;61.08;100589.66;221882;1275;139703;-61
2022/01/23 18:28:36;;;;;;;10.00;5.70;;;;;;;1.86;60.64;100600.86;222019;1276;139485;-60
2022/01/23 18:33:40;;;;;;;11.30;5.60;;;;;;;1.74;60.36;100601.23;221730;1275;139306;-58
2022/01/23 18:38:43;;;;;;;8.30;5.10;;;;;;;1.68;60.32;100597.39;221664;1276;139089;-60
2022/01/23 18:43:46;;;;;;;37.30;25.40;;;;;;;1.62;60.12;100598.25;221827;1276;138741;-59
2022/01/23 18:48:49;;;;;;;15.80;8.50;;;;;;;1.68;60.47;100604.21;222020;1276;139040;-62
2022/01/23 18:59:18;;;;;;;18.00;6.10;;;;;;;1.63;59.56;100627.13;221801;1275;139909;-61
2022/01/23 19:04:23;;;;;;;11.90;6.30;;;;;;;1.59;59.42;100630.61;221995;1274;141670;-60
2022/01/23 19:09:30;;;;;;;12.20;6.10;;;;;;;1.56;59.34;100640.42;221736;1277;139140;-59
2022/01/23 19:14:33;;;;;;;11.80;5.70;;;;;;;1.50;59.05;100644.78;221811;1275;139370;-60
2022/01/23 19:19:36;;;;;;;10.50;5.10;;;;;;;1.45;58.86;100643.20;221621;1276;139004;-62
2022/01/23 19:24:40;;;;;;;11.00;5.70;;;;;;;1.37;58.83;100640.05;221913;1274;139448;-62
2022/01/23 19:29:43;;;;;;;15.30;5.90;;;;;;;1.33;58.67;100643.02;221801;1275;138787;-62
2022/01/23 19:34:46;;;;;;;12.60;5.90;;;;;;;1.33;58.72;100641.27;221945;1276;139648;-62
2022/01/23 19:39:50;;;;;;;12.80;5.60;;;;;;;1.32;58.66;100642.32;221941;1276;142018;-61
2022/01/23 19:44:59;;;;;;;10.20;5.60;;;;;;;1.27;58.47;100652.45;221775;1275;139478;-62
2022/01/23 19:50:03;;;;;;;10.80;5.30;;;;;;;1.21;58.41;100637.41;221875;1275;140141;-62
2022/01/23 19:55:07;;;;;;;11.40;6.00;;;;;;;1.15;58.26;100629.70;221786;1276;139406;-61
2022/01/23 20:00:17;;;;;;;11.00;6.20;;;;;;;1.12;58.14;100645.44;221913;1276;139145;-61
2022/01/23 20:05:20;;;;;;;10.70;5.50;;;;;;;1.06;58.18;100638.94;221978;1276;234469;-61
2022/01/23 20:15:27;;;;;;;10.90;6.40;;;;;;;1.08;58.17;100638.08;221826;1274;139384;-62
2022/01/23 20:20:30;;;;;;;12.90;7.00;;;;;;;1.09;58.22;100644.02;221796;1275;138967;-61
2022/01/23 20:25:39;;;;;;;13.50;6.80;;;;;;;1.09;58.00;100653.45;221887;1276;140059;-62
2022/01/23 20:30:42;;;;;;;14.60;7.40;;;;;;;1.05;57.84;100661.14;221997;1276;139444;-62
2022/01/23 20:35:45;;;;;;;13.80;7.60;;;;;;;1.01;57.84;100663.91;221926;1276;139214;-61
2022/01/23 20:46:09;;;;;;;17.40;8.20;;;;;;;1.01;57.72;100671.42;221838;1276;139290;-61
2022/01/23 20:51:14;;;;;;;16.80;8.00;;;;;;;1.01;57.72;100677.02;221996;1275;139333;-61
2022/01/23 20:56:19;;;;;;;18.50;9.10;;;;;;;0.99;57.70;100691.88;221489;1276;139197;-63
2022/01/23 21:01:23;;;;;;;;;;;;;;;0.98;57.82;100694.84;221763;1276;138823;-60
2022/01/23 21:06:28;;;;;;;14.90;8.00;;;;;;;0.95;57.77;100701.82;221924;1275;125710;-61
2022/01/23 21:11:32;;;;;;;16.40;8.40;;;;;;;0.94;57.59;100705.83;221888;1276;139380;-60
2022/01/23 21:43:13;;;;;;;22.30;10.60;;;;;;;0.90;57.68;100710.88;222018;1274;140063;-62
2022/01/23 21:48:17;;;;;;;64.40;34.20;;;;;;;0.98;58.36;100712.14;221762;1275;141077;-61
2022/01/23 21:53:22;;;;;;;29.30;14.10;;;;;;;1.25;58.72;100719.75;221309;1274;141593;-61
2022/01/23 21:58:25;;;;;;;25.10;12.50;;;;;;;1.19;57.88;100730.56;221542;1276;139644;-59
2022/01/23 22:03:32;;;;;;;22.90;11.90;;;;;;;1.08;57.65;100727.73;220701;1276;139214;-60
2022/01/23 22:08:35;;;;;;;22.00;10.30;;;;;;;1.02;57.68;100728.93;221277;1275;139638;-62
2022/01/23 22:19:10;;;;;;;29.40;12.70;;;;;;;0.88;57.77;100739.88;221324;1274;140168;-61
2022/01/23 22:29:17;;;;;;;26.40;12.30;;;;;;;0.79;57.71;100743.67;221321;1276;139516;-61
2022/01/23 22:34:20;;;;;;;28.10;13.00;;;;;;;0.74;57.70;100741.91;221427;1274;138841;-61
2022/01/23 22:39:23;;;;;;;26.00;12.60;;;;;;;0.73;57.77;100742.08;221253;1276;140362;-61
2022/01/23 22:44:28;;;;;;;33.20;13.50;;;;;;;0.75;57.77;100747.50;221204;1277;140303;-59
2022/01/23 22:49:31;;;;;;;34.70;14.20;;;;;;;0.74;57.56;100745.58;221257;1276;140369;-60
2022/01/23 22:54:34;;;;;;;42.80;14.50;;;;;;;0.70;57.55;100747.99;221247;1275;139971;-59
2022/01/23 22:59:37;;;;;;;35.50;15.50;;;;;;;0.69;57.57;100738.73;221237;1276;139674;-60
2022/01/23 23:04:40;;;;;;;40.50;15.60;;;;;;;0.69;57.55;100737.85;221573;1276;139144;-60
2022/01/23 23:09:44;;;;;;;31.30;15.30;;;;;;;0.68;57.53;100741.71;221237;1275;139868;-60
2022/01/23 23:14:51;;;;;;;34.50;15.20;;;;;;;0.69;57.46;100755.67;221325;1274;139449;-58
2022/01/23 23:20:04;;;;;;;32.10;14.80;;;;;;;0.63;57.24;100760.02;221263;1274;139203;-61
2022/01/23 23:25:07;;;;;;;31.80;15.10;;;;;;;0.57;57.21;100763.29;221388;1276;140427;-59
2022/01/23 23:30:11;;;;;;;34.70;15.70;;;;;;;0.54;57.46;100769.02;221205;1276;139034;-60
2022/01/23 23:35:14;;;;;;;36.10;16.60;;;;;;;0.50;57.38;100773.20;221273;1276;140327;-61
2022/01/23 23:40:22;;;;;;;32.80;15.40;;;;;;;0.47;57.43;100760.08;221322;1276;140098;-61
2022/01/23 23:45:25;;;;;;;34.20;16.10;;;;;;;0.48;57.52;100747.16;221307;1277;139892;-60
2022/01/23 23:50:28;;;;;;;33.70;16.90;;;;;;;0.46;57.14;100751.69;221197;1275;140069;-60
2022/01/23 23:55:31;;;;;;;34.30;17.20;;;;;;;0.40;57.02;100750.77;221315;1274;139570;-58
